sensor_id;sensor_type;location;lat;lon;timestamp;temperature;humidity
28552;DHT22;15752;49.560;8.708;2022-11-15T00:02:40;14.80;99.90
28552;DHT22;15752;49.560;8.708;2022-11-15T00:05:28;14.70;99.90
28552;DHT22;15752;49.560;8.708;2022-11-15T00:08:15;14.70;99.90
28552;DHT22;15752;49.560;8.708;2022-11-15T00:11:04;14.70;99.90
28552;DHT22;15752;49.560;8.708;2022-11-15T00:13:51;14.70;99.90
28552;DHT22;15752;49.560;8.708;2022-11-15T00:16:38;14.70;99.90
28552;DHT22;15752;49.560;8.708;2022-11-15T00:19:25;14.70;99.90
28552;DHT22;15752;49.560;8.708;2022-11-15T00:22:11;14.60;99.90
28552;DHT22;15752;49.560;8.708;2022-11-15T00:24:58;14.70;99.90
28552;DHT22;15752;49.560;8.708;2022-11-15T00:27:47;14.60;99.90
28552;DHT22;15752;49.560;8.708;2022-11-15T00:30:34;14.70;99.90
28552;DHT22;15752;49.560;8.708;2022-11-15T00:33:21;14.70;99.90
28552;DHT22;15752;49.560;8.708;2022-11-15T00:36:09;14.70;99.90
28552;DHT22;15752;49.560;8.708;2022-11-15T00:38:55;14.70;99.90
28552;DHT22;15752;49.560;8.708;2022-11-15T00:41:42;14.70;99.90
28552;DHT22;15752;49.560;8.708;2022-11-15T00:44:31;14.70;99.90
28552;DHT22;15752;49.560;8.708;2022-11-15T00:47:18;14.70;99.90
28552;DHT22;15752;49.560;8.708;2022-11-15T00:50:06;14.70;99.90
28552;DHT22;15752;49.560;8.708;2022-11-15T00:52:59;14.70;99.90
28552;DHT22;15752;49.560;8.708;2022-11-15T00:55:46;14.80;99.90
28552;DHT22;15752;49.560;8.708;2022-11-15T00:58:33;14.70;99.90
28552;DHT22;15752;49.560;8.708;2022-11-15T01:01:21;14.70;99.80
28552;DHT22;15752;49.560;8.708;2022-11-15T01:04:08;14.70;99.80
28552;DHT22;15752;49.560;8.708;2022-11-15T01:06:55;14.70;99.90
28552;DHT22;15752;49.560;8.708;2022-11-15T01:09:42;14.70;99.80
28552;DHT22;15752;49.560;8.708;2022-11-15T01:12:29;14.70;99.80
28552;DHT22;15752;49.560;8.708;2022-11-15T01:15:16;14.70;99.80
28552;DHT22;15752;49.560;8.708;2022-11-15T01:18:05;14.70;99.70
28552;DHT22;15752;49.560;8.708;2022-11-15T01:20:52;14.70;99.70
28552;DHT22;15752;49.560;8.708;2022-11-15T01:23:39;14.70;99.70
28552;DHT22;15752;49.560;8.708;2022-11-15T01:26:26;14.70;99.80
28552;DHT22;15752;49.560;8.708;2022-11-15T01:29:14;14.70;99.70
28552;DHT22;15752;49.560;8.708;2022-11-15T01:32:01;14.70;99.70
28552;DHT22;15752;49.560;8.708;2022-11-15T01:34:49;14.70;99.70
28552;DHT22;15752;49.560;8.708;2022-11-15T01:37:36;14.70;99.60
28552;DHT22;15752;49.560;8.708;2022-11-15T01:40:23;14.70;99.60
28552;DHT22;15752;49.560;8.708;2022-11-15T01:43:21;14.60;99.60
28552;DHT22;15752;49.560;8.708;2022-11-15T01:46:24;14.60;99.50
28552;DHT22;15752;49.560;8.708;2022-11-15T01:49:17;14.60;99.50
28552;DHT22;15752;49.560;8.708;2022-11-15T01:52:10;14.60;99.50
28552;DHT22;15752;49.560;8.708;2022-11-15T01:55:04;14.60;99.60
28552;DHT22;15752;49.560;8.708;2022-11-15T01:57:57;14.60;99.60
28552;DHT22;15752;49.560;8.708;2022-11-15T02:00:45;14.60;99.60
28552;DHT22;15752;49.560;8.708;2022-11-15T02:03:38;14.60;99.60
28552;DHT22;15752;49.560;8.708;2022-11-15T02:06:30;14.60;99.60
28552;DHT22;15752;49.560;8.708;2022-11-15T02:09:18;14.60;99.60
28552;DHT22;15752;49.560;8.708;2022-11-15T02:12:07;14.60;99.60
28552;DHT22;15752;49.560;8.708;2022-11-15T02:14:56;14.60;99.60
28552;DHT22;15752;49.560;8.708;2022-11-15T02:17:58;14.60;99.60
28552;DHT22;15752;49.560;8.708;2022-11-15T02:21:04;14.60;99.50
28552;DHT22;15752;49.560;8.708;2022-11-15T02:24:27;14.60;99.40
28552;DHT22;15752;49.560;8.708;2022-11-15T02:27:47;14.60;99.50
28552;DHT22;15752;49.560;8.708;2022-11-15T02:30:46;14.60;99.50
28552;DHT22;15752;49.560;8.708;2022-11-15T02:33:43;14.60;99.50
28552;DHT22;15752;49.560;8.708;2022-11-15T02:36:39;14.50;99.60
28552;DHT22;15752;49.560;8.708;2022-11-15T02:39:32;14.50;99.60
28552;DHT22;15752;49.560;8.708;2022-11-15T02:42:25;14.50;99.70
28552;DHT22;15752;49.560;8.708;2022-11-15T02:45:35;14.50;99.70
28552;DHT22;15752;49.560;8.708;2022-11-15T02:48:25;14.40;99.70
28552;DHT22;15752;49.560;8.708;2022-11-15T02:51:13;14.40;99.80
28552;DHT22;15752;49.560;8.708;2022-11-15T02:54:00;14.40;99.80
28552;DHT22;15752;49.560;8.708;2022-11-15T02:56:47;14.30;99.80
28552;DHT22;15752;49.560;8.708;2022-11-15T02:59:48;14.30;99.90
28552;DHT22;15752;49.560;8.708;2022-11-15T03:03:05;14.20;99.90
28552;DHT22;15752;49.560;8.708;2022-11-15T03:06:20;14.20;99.90
28552;DHT22;15752;49.560;8.708;2022-11-15T03:09:20;14.20;99.90
28552;DHT22;15752;49.560;8.708;2022-11-15T03:12:24;14.10;99.90
28552;DHT22;15752;49.560;8.708;2022-11-15T03:15:20;14.10;99.90
28552;DHT22;15752;49.560;8.708;2022-11-15T03:18:14;14.10;99.90
28552;DHT22;15752;49.560;8.708;2022-11-15T03:21:06;14.00;99.90
28552;DHT22;15752;49.560;8.708;2022-11-15T03:23:58;13.90;99.90
28552;DHT22;15752;49.560;8.708;2022-11-15T03:26:48;13.90;99.90
28552;DHT22;15752;49.560;8.708;2022-11-15T03:29:38;13.90;99.90
28552;DHT22;15752;49.560;8.708;2022-11-15T03:32:28;13.90;99.90
28552;DHT22;15752;49.560;8.708;2022-11-15T03:35:19;13.80;99.90
28552;DHT22;15752;49.560;8.708;2022-11-15T03:38:11;13.80;99.90
28552;DHT22;15752;49.560;8.708;2022-11-15T03:41:07;13.80;99.90
28552;DHT22;15752;49.560;8.708;2022-11-15T03:44:07;13.80;99.90
28552;DHT22;15752;49.560;8.708;2022-11-15T03:47:02;13.70;99.90
28552;DHT22;15752;49.560;8.708;2022-11-15T03:49:52;13.70;99.90
28552;DHT22;15752;49.560;8.708;2022-11-15T03:52:41;13.70;99.90
28552;DHT22;15752;49.560;8.708;2022-11-15T03:55:28;13.70;99.90
28552;DHT22;15752;49.560;8.708;2022-11-15T03:58:19;13.70;99.90
28552;DHT22;15752;49.560;8.708;2022-11-15T04:01:06;13.70;99.90
28552;DHT22;15752;49.560;8.708;2022-11-15T04:03:53;13.70;99.90
28552;DHT22;15752;49.560;8.708;2022-11-15T04:06:40;13.60;99.90
28552;DHT22;15752;49.560;8.708;2022-11-15T04:09:28;13.60;99.90
28552;DHT22;15752;49.560;8.708;2022-11-15T04:12:15;13.60;99.90
28552;DHT22;15752;49.560;8.708;2022-11-15T04:15:19;13.60;99.90
28552;DHT22;15752;49.560;8.708;2022-11-15T04:18:07;13.60;99.90
28552;DHT22;15752;49.560;8.708;2022-11-15T04:20:54;13.60;99.90
28552;DHT22;15752;49.560;8.708;2022-11-15T04:23:59;13.60;99.90
28552;DHT22;15752;49.560;8.708;2022-11-15T04:27:01;13.60;99.90
28552;DHT22;15752;49.560;8.708;2022-11-15T04:29:47;13.60;99.90
28552;DHT22;15752;49.560;8.708;2022-11-15T04:32:36;13.60;99.90
28552;DHT22;15752;49.560;8.708;2022-11-15T04:35:22;13.60;99.90
28552;DHT22;15752;49.560;8.708;2022-11-15T04:38:10;13.60;99.90
28552;DHT22;15752;49.560;8.708;2022-11-15T04:40:57;13.60;99.90
28552;DHT22;15752;49.560;8.708;2022-11-15T04:43:44;13.50;99.90
28552;DHT22;15752;49.560;8.708;2022-11-15T04:46:31;13.50;99.90
28552;DHT22;15752;49.560;8.708;2022-11-15T04:49:20;13.50;99.90
28552;DHT22;15752;49.560;8.708;2022-11-15T04:52:06;13.50;99.90
28552;DHT22;15752;49.560;8.708;2022-11-15T04:54:53;13.50;99.90
28552;DHT22;15752;49.560;8.708;2022-11-15T04:57:41;13.50;99.90
28552;DHT22;15752;49.560;8.708;2022-11-15T05:00:28;13.50;99.90
28552;DHT22;15752;49.560;8.708;2022-11-15T05:03:15;13.50;99.90
28552;DHT22;15752;49.560;8.708;2022-11-15T05:06:21;13.50;99.90
28552;DHT22;15752;49.560;8.708;2022-11-15T05:09:08;13.50;99.90
28552;DHT22;15752;49.560;8.708;2022-11-15T05:11:55;13.50;99.90
28552;DHT22;15752;49.560;8.708;2022-11-15T05:14:42;13.50;99.90
28552;DHT22;15752;49.560;8.708;2022-11-15T05:17:29;13.50;99.90
28552;DHT22;15752;49.560;8.708;2022-11-15T05:20:17;13.50;99.90
28552;DHT22;15752;49.560;8.708;2022-11-15T05:23:05;13.50;99.90
28552;DHT22;15752;49.560;8.708;2022-11-15T05:25:51;13.50;99.90
28552;DHT22;15752;49.560;8.708;2022-11-15T05:28:38;13.50;99.90
28552;DHT22;15752;49.560;8.708;2022-11-15T05:31:26;13.50;99.90
28552;DHT22;15752;49.560;8.708;2022-11-15T05:34:13;13.40;99.90
28552;DHT22;15752;49.560;8.708;2022-11-15T05:37:01;13.50;99.90
28552;DHT22;15752;49.560;8.708;2022-11-15T05:39:49;13.50;99.90
28552;DHT22;15752;49.560;8.708;2022-11-15T05:42:36;13.50;99.90
28552;DHT22;15752;49.560;8.708;2022-11-15T05:45:23;13.50;99.90
28552;DHT22;15752;49.560;8.708;2022-11-15T05:48:12;13.50;99.90
28552;DHT22;15752;49.560;8.708;2022-11-15T05:50:59;13.50;99.90
28552;DHT22;15752;49.560;8.708;2022-11-15T05:53:47;13.40;99.90
28552;DHT22;15752;49.560;8.708;2022-11-15T05:56:36;13.40;99.90
28552;DHT22;15752;49.560;8.708;2022-11-15T05:59:23;13.40;99.90
28552;DHT22;15752;49.560;8.708;2022-11-15T06:02:11;13.40;99.90
28552;DHT22;15752;49.560;8.708;2022-11-15T06:04:58;13.30;99.90
28552;DHT22;15752;49.560;8.708;2022-11-15T06:07:44;13.30;99.90
28552;DHT22;15752;49.560;8.708;2022-11-15T06:10:32;13.30;99.90
28552;DHT22;15752;49.560;8.708;2022-11-15T06:13:20;13.30;99.90
28552;DHT22;15752;49.560;8.708;2022-11-15T06:16:07;13.30;99.90
28552;DHT22;15752;49.560;8.708;2022-11-15T06:18:54;13.30;99.90
28552;DHT22;15752;49.560;8.708;2022-11-15T06:21:41;13.30;99.90
28552;DHT22;15752;49.560;8.708;2022-11-15T06:24:28;13.30;99.90
28552;DHT22;15752;49.560;8.708;2022-11-15T06:27:17;13.30;99.90
28552;DHT22;15752;49.560;8.708;2022-11-15T06:30:06;13.30;99.90
28552;DHT22;15752;49.560;8.708;2022-11-15T06:32:59;13.30;99.90
28552;DHT22;15752;49.560;8.708;2022-11-15T06:35:47;13.30;99.90
28552;DHT22;15752;49.560;8.708;2022-11-15T06:38:34;13.30;99.90
28552;DHT22;15752;49.560;8.708;2022-11-15T06:41:21;13.30;99.90
28552;DHT22;15752;49.560;8.708;2022-11-15T06:44:08;13.30;99.90
28552;DHT22;15752;49.560;8.708;2022-11-15T06:46:56;13.30;99.90
28552;DHT22;15752;49.560;8.708;2022-11-15T06:49:43;13.30;99.90
28552;DHT22;15752;49.560;8.708;2022-11-15T06:52:31;13.30;99.90
28552;DHT22;15752;49.560;8.708;2022-11-15T06:55:18;13.30;99.90
28552;DHT22;15752;49.560;8.708;2022-11-15T06:58:05;13.30;99.90
28552;DHT22;15752;49.560;8.708;2022-11-15T07:00:52;13.20;99.90
28552;DHT22;15752;49.560;8.708;2022-11-15T07:03:42;13.30;99.90
28552;DHT22;15752;49.560;8.708;2022-11-15T07:06:29;13.30;99.90
28552;DHT22;15752;49.560;8.708;2022-11-15T07:09:19;13.20;99.90
28552;DHT22;15752;49.560;8.708;2022-11-15T07:12:06;13.20;99.90
28552;DHT22;15752;49.560;8.708;2022-11-15T07:14:53;13.20;99.90
28552;DHT22;15752;49.560;8.708;2022-11-15T07:17:40;13.20;99.90
28552;DHT22;15752;49.560;8.708;2022-11-15T07:20:28;13.20;99.90
28552;DHT22;15752;49.560;8.708;2022-11-15T07:23:15;13.20;99.90
28552;DHT22;15752;49.560;8.708;2022-11-15T07:26:02;13.20;99.90
28552;DHT22;15752;49.560;8.708;2022-11-15T07:28:49;13.20;99.90
28552;DHT22;15752;49.560;8.708;2022-11-15T07:31:36;13.20;99.90
28552;DHT22;15752;49.560;8.708;2022-11-15T07:34:24;13.20;99.90
28552;DHT22;15752;49.560;8.708;2022-11-15T07:37:12;13.20;99.90
28552;DHT22;15752;49.560;8.708;2022-11-15T07:39:59;13.20;99.90
28552;DHT22;15752;49.560;8.708;2022-11-15T07:42:46;13.20;99.90
28552;DHT22;15752;49.560;8.708;2022-11-15T07:45:41;13.20;99.90
28552;DHT22;15752;49.560;8.708;2022-11-15T07:48:29;13.20;99.90
28552;DHT22;15752;49.560;8.708;2022-11-15T07:51:29;13.20;99.90
28552;DHT22;15752;49.560;8.708;2022-11-15T07:54:17;13.30;99.90
28552;DHT22;15752;49.560;8.708;2022-11-15T07:57:04;13.30;99.90
28552;DHT22;15752;49.560;8.708;2022-11-15T07:59:52;13.30;99.90
28552;DHT22;15752;49.560;8.708;2022-11-15T08:02:39;13.30;99.90
28552;DHT22;15752;49.560;8.708;2022-11-15T08:05:27;13.30;99.90
28552;DHT22;15752;49.560;8.708;2022-11-15T08:08:14;13.30;99.90
28552;DHT22;15752;49.560;8.708;2022-11-15T08:11:02;13.30;99.90
28552;DHT22;15752;49.560;8.708;2022-11-15T08:13:50;13.30;99.90
28552;DHT22;15752;49.560;8.708;2022-11-15T08:16:37;13.30;99.90
28552;DHT22;15752;49.560;8.708;2022-11-15T08:19:24;13.40;99.90
28552;DHT22;15752;49.560;8.708;2022-11-15T08:22:11;13.30;99.90
28552;DHT22;15752;49.560;8.708;2022-11-15T08:24:58;13.40;99.90
28552;DHT22;15752;49.560;8.708;2022-11-15T08:27:46;13.40;99.90
28552;DHT22;15752;49.560;8.708;2022-11-15T08:30:36;13.40;99.90
28552;DHT22;15752;49.560;8.708;2022-11-15T08:33:24;13.40;99.90
28552;DHT22;15752;49.560;8.708;2022-11-15T08:36:13;13.50;99.90
28552;DHT22;15752;49.560;8.708;2022-11-15T08:39:01;13.50;99.90
28552;DHT22;15752;49.560;8.708;2022-11-15T08:41:48;13.50;99.90
28552;DHT22;15752;49.560;8.708;2022-11-15T08:44:36;13.50;99.90
28552;DHT22;15752;49.560;8.708;2022-11-15T08:47:23;13.50;99.90
28552;DHT22;15752;49.560;8.708;2022-11-15T08:50:10;13.60;99.90
28552;DHT22;15752;49.560;8.708;2022-11-15T08:52:59;13.60;99.90
28552;DHT22;15752;49.560;8.708;2022-11-15T08:55:51;13.60;99.90
28552;DHT22;15752;49.560;8.708;2022-11-15T08:58:38;13.60;99.90
28552;DHT22;15752;49.560;8.708;2022-11-15T09:01:26;13.70;99.90
28552;DHT22;15752;49.560;8.708;2022-11-15T09:04:14;13.70;99.90
28552;DHT22;15752;49.560;8.708;2022-11-15T09:07:00;13.80;99.90
28552;DHT22;15752;49.560;8.708;2022-11-15T09:09:47;13.80;99.90
28552;DHT22;15752;49.560;8.708;2022-11-15T09:12:35;13.80;99.90
28552;DHT22;15752;49.560;8.708;2022-11-15T09:15:22;13.90;99.90
28552;DHT22;15752;49.560;8.708;2022-11-15T09:18:10;13.90;99.90
28552;DHT22;15752;49.560;8.708;2022-11-15T09:20:58;13.90;99.90
28552;DHT22;15752;49.560;8.708;2022-11-15T09:23:45;14.00;99.90
28552;DHT22;15752;49.560;8.708;2022-11-15T09:26:32;14.00;99.90
28552;DHT22;15752;49.560;8.708;2022-11-15T09:29:19;14.00;99.90
28552;DHT22;15752;49.560;8.708;2022-11-15T09:32:06;14.10;99.90
28552;DHT22;15752;49.560;8.708;2022-11-15T09:34:54;14.10;99.90
28552;DHT22;15752;49.560;8.708;2022-11-15T09:37:41;14.10;99.90
28552;DHT22;15752;49.560;8.708;2022-11-15T09:40:30;14.20;99.90
28552;DHT22;15752;49.560;8.708;2022-11-15T09:43:29;14.20;99.90
28552;DHT22;15752;49.560;8.708;2022-11-15T09:46:27;14.20;99.90
28552;DHT22;15752;49.560;8.708;2022-11-15T09:49:18;14.30;99.90
28552;DHT22;15752;49.560;8.708;2022-11-15T09:51:59;14.30;99.90
28552;DHT22;15752;49.560;8.708;2022-11-15T09:54:30;14.40;99.90
28552;DHT22;15752;49.560;8.708;2022-11-15T09:57:24;14.40;99.90
28552;DHT22;15752;49.560;8.708;2022-11-15T10:00:07;14.50;99.90
28552;DHT22;15752;49.560;8.708;2022-11-15T10:03:09;14.60;99.90
28552;DHT22;15752;49.560;8.708;2022-11-15T10:05:42;14.70;99.90
28552;DHT22;15752;49.560;8.708;2022-11-15T10:08:27;14.70;99.90
28552;DHT22;15752;49.560;8.708;2022-11-15T10:11:04;14.80;99.90
28552;DHT22;15752;49.560;8.708;2022-11-15T10:13:57;14.90;99.90
28552;DHT22;15752;49.560;8.708;2022-11-15T10:19:56;15.00;99.90
28552;DHT22;15752;49.560;8.708;2022-11-15T10:22:39;15.10;99.90
28552;DHT22;15752;49.560;8.708;2022-11-15T10:25:21;15.20;99.90
28552;DHT22;15752;49.560;8.708;2022-11-15T10:27:54;15.20;99.90
28552;DHT22;15752;49.560;8.708;2022-11-15T10:30:31;15.30;99.90
28552;DHT22;15752;49.560;8.708;2022-11-15T10:33:24;15.30;99.90
28552;DHT22;15752;49.560;8.708;2022-11-15T10:38:59;15.40;99.90
28552;DHT22;15752;49.560;8.708;2022-11-15T10:41:47;15.40;99.90
28552;DHT22;15752;49.560;8.708;2022-11-15T10:44:33;15.50;99.90
28552;DHT22;15752;49.560;8.708;2022-11-15T10:47:26;15.60;99.90
28552;DHT22;15752;49.560;8.708;2022-11-15T10:50:11;15.60;99.90
28552;DHT22;15752;49.560;8.708;2022-11-15T10:52:54;15.70;99.90
28552;DHT22;15752;49.560;8.708;2022-11-15T10:55:26;15.70;99.90
28552;DHT22;15752;49.560;8.708;2022-11-15T10:58:02;15.90;99.90
28552;DHT22;15752;49.560;8.708;2022-11-15T11:00:34;15.80;99.90
28552;DHT22;15752;49.560;8.708;2022-11-15T11:03:19;15.80;99.90
28552;DHT22;15752;49.560;8.708;2022-11-15T11:06:04;15.80;99.90
28552;DHT22;15752;49.560;8.708;2022-11-15T11:08:35;15.80;99.90
28552;DHT22;15752;49.560;8.708;2022-11-15T11:11:04;15.90;99.90
28552;DHT22;15752;49.560;8.708;2022-11-15T11:13:36;15.90;99.90
28552;DHT22;15752;49.560;8.708;2022-11-15T11:16:20;15.90;99.90
28552;DHT22;15752;49.560;8.708;2022-11-15T11:19:01;15.90;99.90
28552;DHT22;15752;49.560;8.708;2022-11-15T11:21:45;16.00;99.90
28552;DHT22;15752;49.560;8.708;2022-11-15T11:24:24;16.00;99.90
28552;DHT22;15752;49.560;8.708;2022-11-15T11:27:08;16.10;99.90
28552;DHT22;15752;49.560;8.708;2022-11-15T11:30:03;16.10;99.90
28552;DHT22;15752;49.560;8.708;2022-11-15T11:35:55;16.10;99.90
28552;DHT22;15752;49.560;8.708;2022-11-15T11:38:50;16.20;99.90
28552;DHT22;15752;49.560;8.708;2022-11-15T11:41:49;16.20;99.90
28552;DHT22;15752;49.560;8.708;2022-11-15T11:44:33;16.20;99.90
28552;DHT22;15752;49.560;8.708;2022-11-15T11:47:09;16.30;99.90
28552;DHT22;15752;49.560;8.708;2022-11-15T11:49:43;16.10;99.90
28552;DHT22;15752;49.560;8.708;2022-11-15T11:52:18;16.30;99.90
28552;DHT22;15752;49.560;8.708;2022-11-15T11:54:57;16.40;99.90
28552;DHT22;15752;49.560;8.708;2022-11-15T11:57:34;16.40;99.90
28552;DHT22;15752;49.560;8.708;2022-11-15T12:00:16;16.40;99.90
28552;DHT22;15752;49.560;8.708;2022-11-15T12:02:54;16.40;99.90
28552;DHT22;15752;49.560;8.708;2022-11-15T12:05:35;16.40;99.90
28552;DHT22;15752;49.560;8.708;2022-11-15T12:08:29;16.50;99.90
28552;DHT22;15752;49.560;8.708;2022-11-15T12:11:09;16.50;99.90
28552;DHT22;15752;49.560;8.708;2022-11-15T12:13:39;16.50;99.90
28552;DHT22;15752;49.560;8.708;2022-11-15T12:16:12;16.60;99.90
28552;DHT22;15752;49.560;8.708;2022-11-15T12:18:49;16.60;99.90
28552;DHT22;15752;49.560;8.708;2022-11-15T12:21:27;16.60;99.90
28552;DHT22;15752;49.560;8.708;2022-11-15T12:24:08;16.60;99.90
28552;DHT22;15752;49.560;8.708;2022-11-15T12:26:45;16.70;99.90
28552;DHT22;15752;49.560;8.708;2022-11-15T12:29:20;16.70;99.90
28552;DHT22;15752;49.560;8.708;2022-11-15T12:31:55;16.70;99.90
28552;DHT22;15752;49.560;8.708;2022-11-15T12:34:42;16.70;99.90
28552;DHT22;15752;49.560;8.708;2022-11-15T12:37:44;16.70;99.90
28552;DHT22;15752;49.560;8.708;2022-11-15T12:40:37;16.70;99.90
28552;DHT22;15752;49.560;8.708;2022-11-15T12:46:12;16.80;99.90
28552;DHT22;15752;49.560;8.708;2022-11-15T12:48:54;16.80;99.90
28552;DHT22;15752;49.560;8.708;2022-11-15T12:55:02;16.80;99.90
28552;DHT22;15752;49.560;8.708;2022-11-15T12:58:26;16.80;99.90
28552;DHT22;15752;49.560;8.708;2022-11-15T13:00:56;16.80;99.90
28552;DHT22;15752;49.560;8.708;2022-11-15T13:03:27;16.80;99.90
28552;DHT22;15752;49.560;8.708;2022-11-15T13:12:52;16.90;99.90
28552;DHT22;15752;49.560;8.708;2022-11-15T13:15:40;16.90;99.90
28552;DHT22;15752;49.560;8.708;2022-11-15T13:18:33;16.90;99.90
28552;DHT22;15752;49.560;8.708;2022-11-15T13:21:16;16.90;99.90
28552;DHT22;15752;49.560;8.708;2022-11-15T13:24:13;16.90;99.90
28552;DHT22;15752;49.560;8.708;2022-11-15T13:26:44;16.90;99.90
28552;DHT22;15752;49.560;8.708;2022-11-15T13:29:16;16.90;99.90
28552;DHT22;15752;49.560;8.708;2022-11-15T13:31:46;16.80;99.90
28552;DHT22;15752;49.560;8.708;2022-11-15T13:34:27;16.80;99.90
28552;DHT22;15752;49.560;8.708;2022-11-15T13:37:29;16.80;99.90
28552;DHT22;15752;49.560;8.708;2022-11-15T13:40:22;16.80;99.90
28552;DHT22;15752;49.560;8.708;2022-11-15T13:42:55;16.80;99.90
28552;DHT22;15752;49.560;8.708;2022-11-15T13:45:24;16.80;99.90
28552;DHT22;15752;49.560;8.708;2022-11-15T13:47:55;16.80;99.90
28552;DHT22;15752;49.560;8.708;2022-11-15T13:50:27;16.80;99.90
28552;DHT22;15752;49.560;8.708;2022-11-15T13:53:00;16.80;99.90
28552;DHT22;15752;49.560;8.708;2022-11-15T13:55:33;16.80;99.90
28552;DHT22;15752;49.560;8.708;2022-11-15T13:58:03;16.80;99.90
28552;DHT22;15752;49.560;8.708;2022-11-15T14:00:36;16.80;99.90
28552;DHT22;15752;49.560;8.708;2022-11-15T14:03:12;16.80;99.90
28552;DHT22;15752;49.560;8.708;2022-11-15T14:06:04;16.80;99.90
28552;DHT22;15752;49.560;8.708;2022-11-15T14:08:37;16.80;99.90
28552;DHT22;15752;49.560;8.708;2022-11-15T14:11:14;16.80;99.90
28552;DHT22;15752;49.560;8.708;2022-11-15T14:14:03;16.80;99.90
28552;DHT22;15752;49.560;8.708;2022-11-15T14:16:41;16.80;99.90
28552;DHT22;15752;49.560;8.708;2022-11-15T14:19:12;16.80;99.90
28552;DHT22;15752;49.560;8.708;2022-11-15T14:22:16;16.80;99.90
28552;DHT22;15752;49.560;8.708;2022-11-15T14:25:07;16.80;99.90
28552;DHT22;15752;49.560;8.708;2022-11-15T14:27:44;16.80;99.90
28552;DHT22;15752;49.560;8.708;2022-11-15T14:30:41;16.80;99.90
28552;DHT22;15752;49.560;8.708;2022-11-15T14:33:29;16.70;99.90
28552;DHT22;15752;49.560;8.708;2022-11-15T14:36:13;16.70;99.60
28552;DHT22;15752;49.560;8.708;2022-11-15T14:38:43;16.70;99.90
28552;DHT22;15752;49.560;8.708;2022-11-15T14:41:18;16.70;99.80
28552;DHT22;15752;49.560;8.708;2022-11-15T14:43:50;16.70;99.80
28552;DHT22;15752;49.560;8.708;2022-11-15T14:46:19;16.70;99.70
28552;DHT22;15752;49.560;8.708;2022-11-15T14:48:50;16.70;99.70
28552;DHT22;15752;49.560;8.708;2022-11-15T14:51:19;16.70;99.50
28552;DHT22;15752;49.560;8.708;2022-11-15T14:53:48;16.70;99.30
28552;DHT22;15752;49.560;8.708;2022-11-15T14:56:17;16.60;99.60
28552;DHT22;15752;49.560;8.708;2022-11-15T14:58:46;16.60;99.60
28552;DHT22;15752;49.560;8.708;2022-11-15T15:01:20;16.60;99.50
28552;DHT22;15752;49.560;8.708;2022-11-15T15:03:49;16.60;99.50
28552;DHT22;15752;49.560;8.708;2022-11-15T15:06:21;16.60;99.50
28552;DHT22;15752;49.560;8.708;2022-11-15T15:08:49;16.60;99.50
28552;DHT22;15752;49.560;8.708;2022-11-15T15:11:21;16.60;99.50
28552;DHT22;15752;49.560;8.708;2022-11-15T15:13:52;16.60;99.60
28552;DHT22;15752;49.560;8.708;2022-11-15T15:16:25;16.50;99.70
28552;DHT22;15752;49.560;8.708;2022-11-15T15:18:53;16.50;99.60
28552;DHT22;15752;49.560;8.708;2022-11-15T15:21:24;16.50;99.50
28552;DHT22;15752;49.560;8.708;2022-11-15T15:24:02;16.50;99.50
28552;DHT22;15752;49.560;8.708;2022-11-15T15:26:31;16.50;99.50
28552;DHT22;15752;49.560;8.708;2022-11-15T15:29:03;16.50;99.50
28552;DHT22;15752;49.560;8.708;2022-11-15T15:31:33;16.40;99.40
28552;DHT22;15752;49.560;8.708;2022-11-15T15:34:01;16.40;99.40
28552;DHT22;15752;49.560;8.708;2022-11-15T15:36:30;16.40;99.40
28552;DHT22;15752;49.560;8.708;2022-11-15T15:38:58;16.40;99.40
28552;DHT22;15752;49.560;8.708;2022-11-15T15:41:27;16.40;99.30
28552;DHT22;15752;49.560;8.708;2022-11-15T15:43:55;16.40;99.50
28552;DHT22;15752;49.560;8.708;2022-11-15T15:46:25;16.40;99.30
28552;DHT22;15752;49.560;8.708;2022-11-15T15:48:55;16.40;99.20
28552;DHT22;15752;49.560;8.708;2022-11-15T15:51:24;16.40;99.10
28552;DHT22;15752;49.560;8.708;2022-11-15T15:53:52;16.30;99.20
28552;DHT22;15752;49.560;8.708;2022-11-15T15:56:24;16.30;99.30
28552;DHT22;15752;49.560;8.708;2022-11-15T15:58:52;16.30;99.20
28552;DHT22;15752;49.560;8.708;2022-11-15T16:01:22;16.30;99.40
28552;DHT22;15752;49.560;8.708;2022-11-15T16:03:51;16.30;99.30
28552;DHT22;15752;49.560;8.708;2022-11-15T16:06:34;16.30;99.30
28552;DHT22;15752;49.560;8.708;2022-11-15T16:09:05;16.30;99.30
28552;DHT22;15752;49.560;8.708;2022-11-15T16:11:44;16.30;99.40
28552;DHT22;15752;49.560;8.708;2022-11-15T16:14:13;16.30;99.40
28552;DHT22;15752;49.560;8.708;2022-11-15T16:16:42;16.30;99.40
28552;DHT22;15752;49.560;8.708;2022-11-15T16:19:11;16.30;99.20
28552;DHT22;15752;49.560;8.708;2022-11-15T16:21:41;16.20;99.20
28552;DHT22;15752;49.560;8.708;2022-11-15T16:24:09;16.20;99.20
28552;DHT22;15752;49.560;8.708;2022-11-15T16:26:38;16.20;99.30
28552;DHT22;15752;49.560;8.708;2022-11-15T16:29:07;16.20;99.30
28552;DHT22;15752;49.560;8.708;2022-11-15T16:31:36;16.20;99.20
28552;DHT22;15752;49.560;8.708;2022-11-15T16:34:05;16.20;99.40
28552;DHT22;15752;49.560;8.708;2022-11-15T16:36:34;16.20;99.20
28552;DHT22;15752;49.560;8.708;2022-11-15T16:39:04;16.20;99.30
28552;DHT22;15752;49.560;8.708;2022-11-15T16:41:33;16.20;99.30
28552;DHT22;15752;49.560;8.708;2022-11-15T16:44:02;16.20;99.30
28552;DHT22;15752;49.560;8.708;2022-11-15T16:46:30;16.10;99.20
28552;DHT22;15752;49.560;8.708;2022-11-15T16:48:59;16.10;99.20
28552;DHT22;15752;49.560;8.708;2022-11-15T16:51:27;16.10;99.30
28552;DHT22;15752;49.560;8.708;2022-11-15T16:53:55;16.10;99.20
28552;DHT22;15752;49.560;8.708;2022-11-15T16:56:27;16.10;99.30
28552;DHT22;15752;49.560;8.708;2022-11-15T16:58:57;16.10;99.20
28552;DHT22;15752;49.560;8.708;2022-11-15T17:01:29;16.10;99.20
28552;DHT22;15752;49.560;8.708;2022-11-15T17:03:58;16.10;99.30
28552;DHT22;15752;49.560;8.708;2022-11-15T17:06:39;16.10;99.20
28552;DHT22;15752;49.560;8.708;2022-11-15T17:09:10;16.10;99.20
28552;DHT22;15752;49.560;8.708;2022-11-15T17:11:41;16.10;99.10
28552;DHT22;15752;49.560;8.708;2022-11-15T17:14:11;16.10;99.20
28552;DHT22;15752;49.560;8.708;2022-11-15T17:16:39;16.10;99.20
28552;DHT22;15752;49.560;8.708;2022-11-15T17:19:14;16.10;99.20
28552;DHT22;15752;49.560;8.708;2022-11-15T17:21:46;16.10;99.20
28552;DHT22;15752;49.560;8.708;2022-11-15T17:24:15;16.10;99.20
28552;DHT22;15752;49.560;8.708;2022-11-15T17:26:48;16.10;99.20
28552;DHT22;15752;49.560;8.708;2022-11-15T17:29:16;16.10;99.20
28552;DHT22;15752;49.560;8.708;2022-11-15T17:31:45;16.10;99.20
28552;DHT22;15752;49.560;8.708;2022-11-15T17:34:13;16.10;99.20
28552;DHT22;15752;49.560;8.708;2022-11-15T17:36:42;16.10;99.20
28552;DHT22;15752;49.560;8.708;2022-11-15T17:39:10;16.10;99.30